sensor_id;sensor_type;location;lat;lon;timestamp;P1;durP1;ratioP1;P2;durP2;ratioP2
16352;SDS011;8286;51.274;9.542;2023-04-06T00:02:16;7.30;;;5.73;;
16352;SDS011;8286;51.274;9.542;2023-04-06T00:04:43;7.10;;;5.43;;
16352;SDS011;8286;51.274;9.542;2023-04-06T00:07:10;9.90;;;5.87;;
16352;SDS011;8286;51.274;9.542;2023-04-06T00:09:38;7.93;;;5.67;;
16352;SDS011;8286;51.274;9.542;2023-04-06T00:12:05;9.47;;;5.60;;
16352;SDS011;8286;51.274;9.542;2023-04-06T00:14:32;8.53;;;5.90;;
16352;SDS011;8286;51.274;9.542;2023-04-06T00:16:58;10.40;;;6.13;;
16352;SDS011;8286;51.274;9.542;2023-04-06T00:19:25;12.40;;;6.10;;
16352;SDS011;8286;51.274;9.542;2023-04-06T00:21:51;10.33;;;6.63;;
16352;SDS011;8286;51.274;9.542;2023-04-06T00:24:18;8.10;;;6.00;;
16352;SDS011;8286;51.274;9.542;2023-04-06T00:26:46;8.60;;;6.23;;
16352;SDS011;8286;51.274;9.542;2023-04-06T00:29:13;8.40;;;6.07;;
16352;SDS011;8286;51.274;9.542;2023-04-06T00:31:40;8.47;;;6.00;;
16352;SDS011;8286;51.274;9.542;2023-04-06T00:34:06;7.80;;;5.60;;
16352;SDS011;8286;51.274;9.542;2023-04-06T00:36:33;9.87;;;6.27;;
16352;SDS011;8286;51.274;9.542;2023-04-06T00:39:00;8.80;;;6.07;;
16352;SDS011;8286;51.274;9.542;2023-04-06T00:41:26;8.73;;;5.90;;
16352;SDS011;8286;51.274;9.542;2023-04-06T00:43:54;11.67;;;6.00;;
16352;SDS011;8286;51.274;9.542;2023-04-06T00:46:21;12.30;;;6.67;;
16352;SDS011;8286;51.274;9.542;2023-04-06T00:48:47;7.93;;;5.60;;
16352;SDS011;8286;51.274;9.542;2023-04-06T00:51:14;12.30;;;6.73;;
16352;SDS011;8286;51.274;9.542;2023-04-06T00:53:41;12.33;;;6.60;;
16352;SDS011;8286;51.274;9.542;2023-04-06T00:56:07;7.67;;;6.37;;
16352;SDS011;8286;51.274;9.542;2023-04-06T00:58:34;7.47;;;5.47;;
16352;SDS011;8286;51.274;9.542;2023-04-06T01:01:04;8.93;;;6.80;;
16352;SDS011;8286;51.274;9.542;2023-04-06T01:03:31;9.43;;;6.40;;
16352;SDS011;8286;51.274;9.542;2023-04-06T01:05:57;10.57;;;6.57;;
16352;SDS011;8286;51.274;9.542;2023-04-06T01:08:24;10.57;;;6.40;;
16352;SDS011;8286;51.274;9.542;2023-04-06T01:10:51;9.70;;;5.90;;
16352;SDS011;8286;51.274;9.542;2023-04-06T01:13:18;10.37;;;6.67;;
16352;SDS011;8286;51.274;9.542;2023-04-06T01:15:44;9.40;;;5.73;;
16352;SDS011;8286;51.274;9.542;2023-04-06T01:18:12;10.27;;;5.87;;
16352;SDS011;8286;51.274;9.542;2023-04-06T01:20:39;7.93;;;5.83;;
16352;SDS011;8286;51.274;9.542;2023-04-06T01:23:08;8.33;;;6.30;;
16352;SDS011;8286;51.274;9.542;2023-04-06T01:25:34;8.03;;;6.20;;
16352;SDS011;8286;51.274;9.542;2023-04-06T01:28:01;9.73;;;5.63;;
16352;SDS011;8286;51.274;9.542;2023-04-06T01:30:28;8.43;;;5.77;;
16352;SDS011;8286;51.274;9.542;2023-04-06T01:32:54;6.93;;;5.30;;
16352;SDS011;8286;51.274;9.542;2023-04-06T01:35:21;11.83;;;5.93;;
16352;SDS011;8286;51.274;9.542;2023-04-06T01:37:47;11.93;;;6.80;;
16352;SDS011;8286;51.274;9.542;2023-04-06T01:40:15;8.27;;;5.80;;
16352;SDS011;8286;51.274;9.542;2023-04-06T01:42:42;8.60;;;5.63;;
16352;SDS011;8286;51.274;9.542;2023-04-06T01:45:09;7.37;;;5.07;;
16352;SDS011;8286;51.274;9.542;2023-04-06T01:47:36;10.30;;;6.43;;
16352;SDS011;8286;51.274;9.542;2023-04-06T01:50:03;7.43;;;6.37;;
16352;SDS011;8286;51.274;9.542;2023-04-06T01:52:31;8.43;;;6.27;;
16352;SDS011;8286;51.274;9.542;2023-04-06T01:54:57;8.00;;;5.93;;
16352;SDS011;8286;51.274;9.542;2023-04-06T01:57:25;9.90;;;6.33;;
16352;SDS011;8286;51.274;9.542;2023-04-06T01:59:52;12.07;;;6.37;;
16352;SDS011;8286;51.274;9.542;2023-04-06T02:02:19;8.93;;;6.30;;
16352;SDS011;8286;51.274;9.542;2023-04-06T02:04:45;13.10;;;6.73;;
16352;SDS011;8286;51.274;9.542;2023-04-06T02:07:12;12.10;;;5.93;;
16352;SDS011;8286;51.274;9.542;2023-04-06T02:09:38;8.17;;;5.87;;
16352;SDS011;8286;51.274;9.542;2023-04-06T02:12:05;10.87;;;6.47;;
16352;SDS011;8286;51.274;9.542;2023-04-06T02:14:33;8.10;;;5.87;;
16352;SDS011;8286;51.274;9.542;2023-04-06T02:17:00;7.70;;;5.60;;
16352;SDS011;8286;51.274;9.542;2023-04-06T02:19:26;9.43;;;5.73;;
16352;SDS011;8286;51.274;9.542;2023-04-06T02:21:53;6.47;;;5.30;;
16352;SDS011;8286;51.274;9.542;2023-04-06T02:24:19;11.57;;;5.67;;
16352;SDS011;8286;51.274;9.542;2023-04-06T02:26:46;6.97;;;5.70;;
16352;SDS011;8286;51.274;9.542;2023-04-06T02:29:13;12.67;;;6.10;;
16352;SDS011;8286;51.274;9.542;2023-04-06T02:31:41;8.13;;;6.27;;
16352;SDS011;8286;51.274;9.542;2023-04-06T02:34:08;8.10;;;6.70;;
16352;SDS011;8286;51.274;9.542;2023-04-06T02:36:37;12.30;;;6.13;;
16352;SDS011;8286;51.274;9.542;2023-04-06T02:39:03;9.13;;;6.23;;
16352;SDS011;8286;51.274;9.542;2023-04-06T02:41:30;8.87;;;6.20;;
16352;SDS011;8286;51.274;9.542;2023-04-06T02:43:56;7.40;;;5.77;;
16352;SDS011;8286;51.274;9.542;2023-04-06T02:46:23;10.77;;;6.47;;
16352;SDS011;8286;51.274;9.542;2023-04-06T02:48:51;7.97;;;5.93;;
16352;SDS011;8286;51.274;9.542;2023-04-06T02:51:18;9.00;;;5.60;;
16352;SDS011;8286;51.274;9.542;2023-04-06T02:53:45;10.37;;;5.67;;
16352;SDS011;8286;51.274;9.542;2023-04-06T02:56:11;9.87;;;6.20;;
16352;SDS011;8286;51.274;9.542;2023-04-06T02:58:38;12.23;;;7.00;;
16352;SDS011;8286;51.274;9.542;2023-04-06T03:01:05;13.87;;;6.33;;
16352;SDS011;8286;51.274;9.542;2023-04-06T03:03:31;9.83;;;5.80;;
16352;SDS011;8286;51.274;9.542;2023-04-06T03:05:59;7.93;;;5.67;;
16352;SDS011;8286;51.274;9.542;2023-04-06T03:08:26;9.07;;;5.53;;
16352;SDS011;8286;51.274;9.542;2023-04-06T03:10:52;8.87;;;6.10;;
16352;SDS011;8286;51.274;9.542;2023-04-06T03:13:19;8.40;;;5.87;;
16352;SDS011;8286;51.274;9.542;2023-04-06T03:15:46;8.53;;;5.83;;
16352;SDS011;8286;51.274;9.542;2023-04-06T03:18:13;7.90;;;5.37;;
16352;SDS011;8286;51.274;9.542;2023-04-06T03:20:39;9.43;;;6.67;;
16352;SDS011;8286;51.274;9.542;2023-04-06T03:23:07;9.27;;;6.40;;
16352;SDS011;8286;51.274;9.542;2023-04-06T03:25:34;9.97;;;6.20;;
16352;SDS011;8286;51.274;9.542;2023-04-06T03:28:01;6.83;;;5.50;;
16352;SDS011;8286;51.274;9.542;2023-04-06T03:30:27;9.60;;;6.40;;
16352;SDS011;8286;51.274;9.542;2023-04-06T03:32:54;9.63;;;5.97;;
16352;SDS011;8286;51.274;9.542;2023-04-06T03:35:20;10.00;;;6.00;;
16352;SDS011;8286;51.274;9.542;2023-04-06T03:37:47;8.10;;;5.90;;
16352;SDS011;8286;51.274;9.542;2023-04-06T03:40:15;10.37;;;5.80;;
16352;SDS011;8286;51.274;9.542;2023-04-06T03:42:42;8.90;;;5.90;;
16352;SDS011;8286;51.274;9.542;2023-04-06T03:45:09;8.97;;;5.20;;
16352;SDS011;8286;51.274;9.542;2023-04-06T03:47:37;9.07;;;6.10;;
16352;SDS011;8286;51.274;9.542;2023-04-06T03:50:04;11.13;;;5.83;;
16352;SDS011;8286;51.274;9.542;2023-04-06T03:52:32;7.10;;;5.67;;
16352;SDS011;8286;51.274;9.542;2023-04-06T03:54:58;10.47;;;5.70;;
16352;SDS011;8286;51.274;9.542;2023-04-06T03:57:26;8.13;;;6.13;;
16352;SDS011;8286;51.274;9.542;2023-04-06T03:59:53;10.63;;;6.17;;
16352;SDS011;8286;51.274;9.542;2023-04-06T04:02:19;9.60;;;6.57;;
16352;SDS011;8286;51.274;9.542;2023-04-06T04:04:46;7.63;;;5.93;;
16352;SDS011;8286;51.274;9.542;2023-04-06T04:07:13;9.77;;;6.30;;
16352;SDS011;8286;51.274;9.542;2023-04-06T04:09:39;9.20;;;6.43;;
16352;SDS011;8286;51.274;9.542;2023-04-06T04:12:06;10.37;;;5.73;;
16352;SDS011;8286;51.274;9.542;2023-04-06T04:14:34;10.20;;;6.20;;
16352;SDS011;8286;51.274;9.542;2023-04-06T04:17:01;10.37;;;6.17;;
16352;SDS011;8286;51.274;9.542;2023-04-06T04:19:27;8.47;;;6.33;;
16352;SDS011;8286;51.274;9.542;2023-04-06T04:21:54;8.90;;;5.80;;
16352;SDS011;8286;51.274;9.542;2023-04-06T04:24:20;7.87;;;5.77;;
16352;SDS011;8286;51.274;9.542;2023-04-06T04:26:47;12.27;;;6.30;;
16352;SDS011;8286;51.274;9.542;2023-04-06T04:29:14;9.47;;;6.67;;
16352;SDS011;8286;51.274;9.542;2023-04-06T04:31:43;13.27;;;6.03;;
16352;SDS011;8286;51.274;9.542;2023-04-06T04:34:09;15.47;;;7.67;;
16352;SDS011;8286;51.274;9.542;2023-04-06T04:36:36;15.50;;;7.43;;
16352;SDS011;8286;51.274;9.542;2023-04-06T04:39:02;13.77;;;7.77;;
16352;SDS011;8286;51.274;9.542;2023-04-06T04:41:29;12.17;;;7.07;;
16352;SDS011;8286;51.274;9.542;2023-04-06T04:43:56;10.37;;;6.17;;
16352;SDS011;8286;51.274;9.542;2023-04-06T04:46:23;8.43;;;6.50;;
16352;SDS011;8286;51.274;9.542;2023-04-06T04:48:51;10.53;;;6.10;;
16352;SDS011;8286;51.274;9.542;2023-04-06T04:51:17;11.90;;;6.40;;
16352;SDS011;8286;51.274;9.542;2023-04-06T04:53:44;9.73;;;6.53;;
16352;SDS011;8286;51.274;9.542;2023-04-06T04:56:11;10.93;;;6.67;;
16352;SDS011;8286;51.274;9.542;2023-04-06T04:58:37;10.60;;;6.20;;
16352;SDS011;8286;51.274;9.542;2023-04-06T05:01:04;14.43;;;6.70;;
16352;SDS011;8286;51.274;9.542;2023-04-06T05:03:31;9.53;;;7.03;;
16352;SDS011;8286;51.274;9.542;2023-04-06T05:06:00;9.17;;;6.17;;
16352;SDS011;8286;51.274;9.542;2023-04-06T05:08:26;10.00;;;6.20;;
16352;SDS011;8286;51.274;9.542;2023-04-06T05:10:53;10.27;;;6.70;;
16352;SDS011;8286;51.274;9.542;2023-04-06T05:13:20;12.67;;;6.77;;
16352;SDS011;8286;51.274;9.542;2023-04-06T05:15:47;13.07;;;7.43;;
16352;SDS011;8286;51.274;9.542;2023-04-06T05:18:13;11.10;;;5.90;;
16352;SDS011;8286;51.274;9.542;2023-04-06T05:20:40;10.60;;;6.00;;
16352;SDS011;8286;51.274;9.542;2023-04-06T05:23:09;11.93;;;7.03;;
16352;SDS011;8286;51.274;9.542;2023-04-06T05:25:36;10.43;;;6.37;;
16352;SDS011;8286;51.274;9.542;2023-04-06T05:28:02;11.73;;;6.30;;
16352;SDS011;8286;51.274;9.542;2023-04-06T05:30:29;9.67;;;6.43;;
16352;SDS011;8286;51.274;9.542;2023-04-06T05:32:56;10.50;;;6.37;;
16352;SDS011;8286;51.274;9.542;2023-04-06T05:35:22;10.53;;;6.40;;
16352;SDS011;8286;51.274;9.542;2023-04-06T05:37:49;7.97;;;5.83;;
16352;SDS011;8286;51.274;9.542;2023-04-06T05:40:17;11.67;;;6.67;;
16352;SDS011;8286;51.274;9.542;2023-04-06T05:42:44;11.70;;;7.07;;
16352;SDS011;8286;51.274;9.542;2023-04-06T05:45:12;11.43;;;6.67;;
16352;SDS011;8286;51.274;9.542;2023-04-06T05:47:41;11.83;;;6.93;;
16352;SDS011;8286;51.274;9.542;2023-04-06T05:50:08;9.47;;;6.23;;
16352;SDS011;8286;51.274;9.542;2023-04-06T05:52:35;15.10;;;6.50;;
16352;SDS011;8286;51.274;9.542;2023-04-06T05:55:02;10.53;;;6.17;;
16352;SDS011;8286;51.274;9.542;2023-04-06T05:57:30;9.93;;;6.43;;
16352;SDS011;8286;51.274;9.542;2023-04-06T05:59:57;10.57;;;6.23;;
16352;SDS011;8286;51.274;9.542;2023-04-06T06:02:24;10.47;;;5.97;;
16352;SDS011;8286;51.274;9.542;2023-04-06T06:04:51;10.73;;;7.60;;
16352;SDS011;8286;51.274;9.542;2023-04-06T06:07:17;8.67;;;6.33;;
16352;SDS011;8286;51.274;9.542;2023-04-06T06:09:44;12.07;;;7.60;;
16352;SDS011;8286;51.274;9.542;2023-04-06T06:12:10;13.33;;;7.63;;
16352;SDS011;8286;51.274;9.542;2023-04-06T06:14:38;9.93;;;6.73;;
16352;SDS011;8286;51.274;9.542;2023-04-06T06:17:05;18.23;;;7.33;;
16352;SDS011;8286;51.274;9.542;2023-04-06T06:19:32;11.17;;;7.13;;
16352;SDS011;8286;51.274;9.542;2023-04-06T06:21:58;11.87;;;6.50;;
16352;SDS011;8286;51.274;9.542;2023-04-06T06:24:27;11.07;;;7.27;;
16352;SDS011;8286;51.274;9.542;2023-04-06T06:26:54;12.43;;;7.37;;
16352;SDS011;8286;51.274;9.542;2023-04-06T06:29:20;14.03;;;7.60;;
16352;SDS011;8286;51.274;9.542;2023-04-06T06:31:50;10.63;;;7.20;;
16352;SDS011;8286;51.274;9.542;2023-04-06T06:34:16;11.10;;;7.10;;
16352;SDS011;8286;51.274;9.542;2023-04-06T06:36:43;9.73;;;6.27;;
16352;SDS011;8286;51.274;9.542;2023-04-06T06:39:10;16.53;;;6.63;;
16352;SDS011;8286;51.274;9.542;2023-04-06T06:41:36;10.47;;;6.90;;
16352;SDS011;8286;51.274;9.542;2023-04-06T06:44:03;11.87;;;6.80;;
16352;SDS011;8286;51.274;9.542;2023-04-06T06:46:30;15.73;;;7.23;;
16352;SDS011;8286;51.274;9.542;2023-04-06T06:48:58;15.47;;;6.57;;
16352;SDS011;8286;51.274;9.542;2023-04-06T06:51:25;10.13;;;6.80;;
16352;SDS011;8286;51.274;9.542;2023-04-06T06:53:51;8.57;;;6.67;;
16352;SDS011;8286;51.274;9.542;2023-04-06T06:56:18;12.20;;;7.40;;
16352;SDS011;8286;51.274;9.542;2023-04-06T06:58:45;8.57;;;6.30;;
16352;SDS011;8286;51.274;9.542;2023-04-06T07:01:11;8.43;;;5.47;;
16352;SDS011;8286;51.274;9.542;2023-04-06T07:03:38;7.87;;;5.67;;
16352;SDS011;8286;51.274;9.542;2023-04-06T07:06:06;8.20;;;5.03;;
16352;SDS011;8286;51.274;9.542;2023-04-06T07:08:33;6.77;;;5.57;;
16352;SDS011;8286;51.274;9.542;2023-04-06T07:10:59;9.20;;;5.30;;
16352;SDS011;8286;51.274;9.542;2023-04-06T07:13:26;6.27;;;5.67;;
16352;SDS011;8286;51.274;9.542;2023-04-06T07:15:53;6.43;;;5.37;;
16352;SDS011;8286;51.274;9.542;2023-04-06T07:18:19;11.07;;;5.40;;
16352;SDS011;8286;51.274;9.542;2023-04-06T07:20:46;8.37;;;5.13;;
16352;SDS011;8286;51.274;9.542;2023-04-06T07:23:14;6.57;;;5.70;;
16352;SDS011;8286;51.274;9.542;2023-04-06T07:25:41;8.18;;;5.50;;
16352;SDS011;8286;51.274;9.542;2023-04-06T07:28:07;6.53;;;5.47;;
16352;SDS011;8286;51.274;9.542;2023-04-06T07:30:34;6.63;;;5.40;;
16352;SDS011;8286;51.274;9.542;2023-04-06T07:33:01;6.70;;;5.97;;
16352;SDS011;8286;51.274;9.542;2023-04-06T07:35:27;8.82;;;6.65;;
16352;SDS011;8286;51.274;9.542;2023-04-06T07:37:55;9.30;;;6.47;;
16352;SDS011;8286;51.274;9.542;2023-04-06T07:40:23;8.57;;;6.50;;
16352;SDS011;8286;51.274;9.542;2023-04-06T07:42:51;8.10;;;6.38;;
16352;SDS011;8286;51.274;9.542;2023-04-06T07:45:17;11.68;;;6.25;;
16352;SDS011;8286;51.274;9.542;2023-04-06T07:47:44;9.27;;;6.03;;
16352;SDS011;8286;51.274;9.542;2023-04-06T07:50:11;12.13;;;6.45;;
16352;SDS011;8286;51.274;9.542;2023-04-06T07:52:38;6.30;;;5.70;;
16352;SDS011;8286;51.274;9.542;2023-04-06T07:55:05;8.55;;;6.00;;
16352;SDS011;8286;51.274;9.542;2023-04-06T07:57:34;7.53;;;5.60;;
16352;SDS011;8286;51.274;9.542;2023-04-06T08:00:00;6.82;;;5.90;;
16352;SDS011;8286;51.274;9.542;2023-04-06T08:02:28;8.85;;;6.60;;
16352;SDS011;8286;51.274;9.542;2023-04-06T08:04:55;6.03;;;5.30;;
16352;SDS011;8286;51.274;9.542;2023-04-06T08:07:22;6.65;;;5.95;;
16352;SDS011;8286;51.274;9.542;2023-04-06T08:09:48;7.80;;;6.05;;
16352;SDS011;8286;51.274;9.542;2023-04-06T08:12:15;6.35;;;5.72;;
16352;SDS011;8286;51.274;9.542;2023-04-06T08:14:43;8.23;;;6.45;;
16352;SDS011;8286;51.274;9.542;2023-04-06T08:17:09;7.85;;;6.22;;
16352;SDS011;8286;51.274;9.542;2023-04-06T08:19:36;8.35;;;6.60;;
16352;SDS011;8286;51.274;9.542;2023-04-06T08:22:03;6.32;;;5.70;;
16352;SDS011;8286;51.274;9.542;2023-04-06T08:24:30;7.65;;;6.07;;
16352;SDS011;8286;51.274;9.542;2023-04-06T08:26:57;6.57;;;5.45;;
16352;SDS011;8286;51.274;9.542;2023-04-06T08:29:24;9.88;;;6.18;;
16352;SDS011;8286;51.274;9.542;2023-04-06T08:31:52;10.93;;;6.63;;
16352;SDS011;8286;51.274;9.542;2023-04-06T08:34:18;12.13;;;6.60;;
16352;SDS011;8286;51.274;9.542;2023-04-06T08:36:45;9.13;;;6.57;;
16352;SDS011;8286;51.274;9.542;2023-04-06T08:39:12;13.27;;;6.97;;
16352;SDS011;8286;51.274;9.542;2023-04-06T08:41:41;12.37;;;7.00;;
16352;SDS011;8286;51.274;9.542;2023-04-06T08:44:07;10.53;;;6.20;;
16352;SDS011;8286;51.274;9.542;2023-04-06T08:46:34;8.13;;;5.87;;
16352;SDS011;8286;51.274;9.542;2023-04-06T08:49:02;11.47;;;6.33;;
16352;SDS011;8286;51.274;9.542;2023-04-06T08:51:31;8.07;;;6.07;;
16352;SDS011;8286;51.274;9.542;2023-04-06T08:53:58;7.80;;;6.17;;
16352;SDS011;8286;51.274;9.542;2023-04-06T08:56:26;9.53;;;6.23;;
16352;SDS011;8286;51.274;9.542;2023-04-06T08:58:54;8.13;;;6.10;;
16352;SDS011;8286;51.274;9.542;2023-04-06T09:01:22;7.90;;;5.80;;
16352;SDS011;8286;51.274;9.542;2023-04-06T09:03:50;9.77;;;6.13;;
16352;SDS011;8286;51.274;9.542;2023-04-06T09:06:18;8.63;;;6.10;;
16352;SDS011;8286;51.274;9.542;2023-04-06T09:08:45;9.53;;;6.00;;
16352;SDS011;8286;51.274;9.542;2023-04-06T09:11:12;6.60;;;6.00;;
16352;SDS011;8286;51.274;9.542;2023-04-06T09:13:45;8.03;;;6.00;;
16352;SDS011;8286;51.274;9.542;2023-04-06T09:16:13;8.97;;;5.13;;
16352;SDS011;8286;51.274;9.542;2023-04-06T09:18:40;6.60;;;4.70;;
16352;SDS011;8286;51.274;9.542;2023-04-06T09:21:07;7.97;;;5.07;;
16352;SDS011;8286;51.274;9.542;2023-04-06T09:23:36;8.87;;;5.20;;
16352;SDS011;8286;51.274;9.542;2023-04-06T09:26:06;9.03;;;5.97;;
16352;SDS011;8286;51.274;9.542;2023-04-06T09:28:43;6.70;;;5.00;;
16352;SDS011;8286;51.274;9.542;2023-04-06T09:31:11;10.70;;;4.87;;
16352;SDS011;8286;51.274;9.542;2023-04-06T09:33:38;7.07;;;4.80;;
16352;SDS011;8286;51.274;9.542;2023-04-06T09:36:06;9.10;;;4.80;;
16352;SDS011;8286;51.274;9.542;2023-04-06T09:38:36;9.97;;;5.30;;
16352;SDS011;8286;51.274;9.542;2023-04-06T09:41:03;7.23;;;4.77;;
16352;SDS011;8286;51.274;9.542;2023-04-06T09:43:30;6.45;;;5.80;;
16352;SDS011;8286;51.274;9.542;2023-04-06T09:45:56;5.85;;;4.30;;
16352;SDS011;8286;51.274;9.542;2023-04-06T09:48:23;5.80;;;4.95;;
16352;SDS011;8286;51.274;9.542;2023-04-06T09:50:51;6.72;;;4.75;;
16352;SDS011;8286;51.274;9.542;2023-04-06T09:53:25;5.45;;;4.60;;
16352;SDS011;8286;51.274;9.542;2023-04-06T09:55:56;8.43;;;5.18;;
16352;SDS011;8286;51.274;9.542;2023-04-06T09:58:24;6.28;;;4.40;;
16352;SDS011;8286;51.274;9.542;2023-04-06T10:00:53;6.60;;;4.85;;
16352;SDS011;8286;51.274;9.542;2023-04-06T10:03:27;5.75;;;4.72;;
16352;SDS011;8286;51.274;9.542;2023-04-06T10:05:58;7.70;;;5.60;;
16352;SDS011;8286;51.274;9.542;2023-04-06T10:08:27;6.03;;;5.13;;
16352;SDS011;8286;51.274;9.542;2023-04-06T10:10:56;7.60;;;5.30;;
16352;SDS011;8286;51.274;9.542;2023-04-06T10:13:23;7.07;;;5.07;;
16352;SDS011;8286;51.274;9.542;2023-04-06T10:15:50;7.00;;;5.03;;
16352;SDS011;8286;51.274;9.542;2023-04-06T10:18:17;6.95;;;5.40;;
16352;SDS011;8286;51.274;9.542;2023-04-06T10:20:47;5.88;;;5.18;;
16352;SDS011;8286;51.274;9.542;2023-04-06T10:23:18;6.38;;;5.32;;
16352;SDS011;8286;51.274;9.542;2023-04-06T10:25:52;6.95;;;5.95;;
16352;SDS011;8286;51.274;9.542;2023-04-06T10:28:21;5.53;;;5.03;;
16352;SDS011;8286;51.274;9.542;2023-04-06T10:30:48;7.05;;;5.53;;
16352;SDS011;8286;51.274;9.542;2023-04-06T10:33:14;7.45;;;5.57;;
16352;SDS011;8286;51.274;9.542;2023-04-06T10:35:41;9.60;;;6.00;;
16352;SDS011;8286;51.274;9.542;2023-04-06T10:38:08;7.10;;;5.35;;
16352;SDS011;8286;51.274;9.542;2023-04-06T10:40:36;5.80;;;5.18;;
16352;SDS011;8286;51.274;9.542;2023-04-06T10:43:07;6.82;;;6.07;;
16352;SDS011;8286;51.274;9.542;2023-04-06T10:45:36;8.27;;;6.32;;
16352;SDS011;8286;51.274;9.542;2023-04-06T10:48:12;14.05;;;5.85;;
16352;SDS011;8286;51.274;9.542;2023-04-06T10:50:39;8.05;;;6.40;;
16352;SDS011;8286;51.274;9.542;2023-04-06T10:53:06;12.07;;;6.03;;
16352;SDS011;8286;51.274;9.542;2023-04-06T10:55:32;12.10;;;8.13;;
16352;SDS011;8286;51.274;9.542;2023-04-06T10:57:59;9.55;;;7.28;;
16352;SDS011;8286;51.274;9.542;2023-04-06T11:00:26;9.07;;;6.15;;
16352;SDS011;8286;51.274;9.542;2023-04-06T11:02:59;11.38;;;6.68;;
16352;SDS011;8286;51.274;9.542;2023-04-06T11:05:26;11.27;;;6.53;;
16352;SDS011;8286;51.274;9.542;2023-04-06T11:07:53;8.38;;;6.90;;
16352;SDS011;8286;51.274;9.542;2023-04-06T11:10:20;12.18;;;6.30;;
16352;SDS011;8286;51.274;9.542;2023-04-06T11:12:52;9.02;;;6.65;;
16352;SDS011;8286;51.274;9.542;2023-04-06T11:15:19;9.88;;;6.97;;
16352;SDS011;8286;51.274;9.542;2023-04-06T11:17:46;30.30;;;9.20;;
16352;SDS011;8286;51.274;9.542;2023-04-06T11:20:15;9.65;;;6.25;;
16352;SDS011;8286;51.274;9.542;2023-04-06T11:22:49;10.75;;;6.75;;
16352;SDS011;8286;51.274;9.542;2023-04-06T11:25:16;11.77;;;7.40;;
16352;SDS011;8286;51.274;9.542;2023-04-06T11:27:43;12.52;;;7.03;;
16352;SDS011;8286;51.274;9.542;2023-04-06T11:30:10;10.63;;;7.63;;
16352;SDS011;8286;51.274;9.542;2023-04-06T11:32:39;10.75;;;7.25;;
16352;SDS011;8286;51.274;9.542;2023-04-06T11:35:07;11.60;;;7.00;;
16352;SDS011;8286;51.274;9.542;2023-04-06T11:37:35;9.75;;;6.22;;
16352;SDS011;8286;51.274;9.542;2023-04-06T11:40:02;9.40;;;7.18;;
16352;SDS011;8286;51.274;9.542;2023-04-06T11:42:29;11.07;;;7.10;;
16352;SDS011;8286;51.274;9.542;2023-04-06T11:44:56;10.02;;;7.05;;
16352;SDS011;8286;51.274;9.542;2023-04-06T11:47:27;11.35;;;7.60;;
16352;SDS011;8286;51.274;9.542;2023-04-06T11:49:55;12.60;;;7.15;;
16352;SDS011;8286;51.274;9.542;2023-04-06T11:52:24;8.65;;;6.47;;
16352;SDS011;8286;51.274;9.542;2023-04-06T11:54:54;10.52;;;7.05;;
16352;SDS011;8286;51.274;9.542;2023-04-06T11:57:22;10.32;;;7.13;;
16352;SDS011;8286;51.274;9.542;2023-04-06T11:59:49;10.25;;;6.32;;
16352;SDS011;8286;51.274;9.542;2023-04-06T12:02:16;12.43;;;7.40;;
16352;SDS011;8286;51.274;9.542;2023-04-06T12:04:42;10.07;;;6.73;;
16352;SDS011;8286;51.274;9.542;2023-04-06T12:07:09;13.00;;;7.43;;
16352;SDS011;8286;51.274;9.542;2023-04-06T12:09:36;9.70;;;6.88;;
16352;SDS011;8286;51.274;9.542;2023-04-06T12:12:05;9.18;;;6.15;;
16352;SDS011;8286;51.274;9.542;2023-04-06T12:14:31;8.10;;;6.20;;
16352;SDS011;8286;51.274;9.542;2023-04-06T12:16:58;12.53;;;6.37;;
16352;SDS011;8286;51.274;9.542;2023-04-06T12:19:25;8.77;;;6.20;;
16352;SDS011;8286;51.274;9.542;2023-04-06T12:21:51;8.88;;;6.05;;
16352;SDS011;8286;51.274;9.542;2023-04-06T12:24:19;9.87;;;6.73;;
16352;SDS011;8286;51.274;9.542;2023-04-06T12:26:45;10.03;;;6.70;;
16352;SDS011;8286;51.274;9.542;2023-04-06T12:29:13;10.23;;;6.53;;
16352;SDS011;8286;51.274;9.542;2023-04-06T12:31:40;9.00;;;6.30;;
16352;SDS011;8286;51.274;9.542;2023-04-06T12:34:09;9.73;;;5.50;;
16352;SDS011;8286;51.274;9.542;2023-04-06T12:36:36;9.80;;;7.03;;
16352;SDS011;8286;51.274;9.542;2023-04-06T12:39:04;14.25;;;6.30;;
16352;SDS011;8286;51.274;9.542;2023-04-06T12:41:30;10.43;;;5.93;;
16352;SDS011;8286;51.274;9.542;2023-04-06T12:43:57;8.38;;;5.80;;
16352;SDS011;8286;51.274;9.542;2023-04-06T12:46:26;8.10;;;4.72;;
16352;SDS011;8286;51.274;9.542;2023-04-06T12:48:54;10.73;;;5.15;;
16352;SDS011;8286;51.274;9.542;2023-04-06T12:51:22;8.30;;;5.28;;
16352;SDS011;8286;51.274;9.542;2023-04-06T12:53:50;9.30;;;5.57;;
16352;SDS011;8286;51.274;9.542;2023-04-06T12:56:17;7.95;;;4.68;;
16352;SDS011;8286;51.274;9.542;2023-04-06T12:58:44;5.65;;;4.35;;
16352;SDS011;8286;51.274;9.542;2023-04-06T13:01:11;7.35;;;5.32;;
16352;SDS011;8286;51.274;9.542;2023-04-06T13:03:39;6.20;;;5.10;;
16352;SDS011;8286;51.274;9.542;2023-04-06T13:06:06;9.98;;;5.15;;
16352;SDS011;8286;51.274;9.542;2023-04-06T13:08:34;7.47;;;5.53;;
16352;SDS011;8286;51.274;9.542;2023-04-06T13:11:01;6.65;;;4.32;;
16352;SDS011;8286;51.274;9.542;2023-04-06T13:13:28;6.03;;;3.72;;
16352;SDS011;8286;51.274;9.542;2023-04-06T13:16:00;7.07;;;4.18;;
16352;SDS011;8286;51.274;9.542;2023-04-06T13:18:27;9.93;;;5.40;;
16352;SDS011;8286;51.274;9.542;2023-04-06T13:20:56;7.40;;;4.83;;
16352;SDS011;8286;51.274;9.542;2023-04-06T13:23:22;6.25;;;4.90;;
16352;SDS011;8286;51.274;9.542;2023-04-06T13:25:56;7.88;;;4.80;;
16352;SDS011;8286;51.274;9.542;2023-04-06T13:28:23;4.78;;;4.00;;
16352;SDS011;8286;51.274;9.542;2023-04-06T13:30:51;8.98;;;4.30;;
16352;SDS011;8286;51.274;9.542;2023-04-06T13:33:17;5.60;;;4.10;;
16352;SDS011;8286;51.274;9.542;2023-04-06T13:35:44;6.83;;;4.40;;
16352;SDS011;8286;51.274;9.542;2023-04-06T13:38:12;9.10;;;5.63;;
16352;SDS011;8286;51.274;9.542;2023-04-06T13:40:39;7.00;;;4.38;;
16352;SDS011;8286;51.274;9.542;2023-04-06T13:43:06;6.32;;;4.40;;
16352;SDS011;8286;51.274;9.542;2023-04-06T13:45:32;8.73;;;5.30;;
16352;SDS011;8286;51.274;9.542;2023-04-06T13:47:59;6.20;;;4.25;;
16352;SDS011;8286;51.274;9.542;2023-04-06T13:50:26;6.72;;;4.28;;
16352;SDS011;8286;51.274;9.542;2023-04-06T13:52:53;8.10;;;5.18;;
16352;SDS011;8286;51.274;9.542;2023-04-06T13:55:21;10.65;;;5.35;;
16352;SDS011;8286;51.274;9.542;2023-04-06T13:57:49;5.75;;;4.80;;
16352;SDS011;8286;51.274;9.542;2023-04-06T14:00:16;7.05;;;4.57;;
16352;SDS011;8286;51.274;9.542;2023-04-06T14:02:43;6.82;;;4.57;;
16352;SDS011;8286;51.274;9.542;2023-04-06T14:05:10;6.57;;;4.28;;
16352;SDS011;8286;51.274;9.542;2023-04-06T14:07:37;6.67;;;4.43;;
16352;SDS011;8286;51.274;9.542;2023-04-06T14:10:04;8.40;;;4.93;;
16352;SDS011;8286;51.274;9.542;2023-04-06T14:12:39;6.20;;;4.18;;
16352;SDS011;8286;51.274;9.542;2023-04-06T14:15:07;6.07;;;4.43;;
16352;SDS011;8286;51.274;9.542;2023-04-06T14:17:35;6.87;;;4.40;;
16352;SDS011;8286;51.274;9.542;2023-04-06T14:20:01;7.33;;;4.60;;
16352;SDS011;8286;51.274;9.542;2023-04-06T14:22:28;5.83;;;4.67;;
16352;SDS011;8286;51.274;9.542;2023-04-06T14:24:54;6.93;;;4.97;;
16352;SDS011;8286;51.274;9.542;2023-04-06T14:27:21;6.93;;;5.40;;
16352;SDS011;8286;51.274;9.542;2023-04-06T14:29:49;6.63;;;4.80;;
16352;SDS011;8286;51.274;9.542;2023-04-06T14:32:16;9.67;;;4.97;;
16352;SDS011;8286;51.274;9.542;2023-04-06T14:34:42;7.60;;;4.50;;
16352;SDS011;8286;51.274;9.542;2023-04-06T14:37:09;6.90;;;4.83;;
16352;SDS011;8286;51.274;9.542;2023-04-06T14:39:35;8.60;;;5.17;;
16352;SDS011;8286;51.274;9.542;2023-04-06T14:42:02;10.63;;;5.63;;
16352;SDS011;8286;51.274;9.542;2023-04-06T14:44:29;9.03;;;5.13;;
16352;SDS011;8286;51.274;9.542;2023-04-06T14:46:56;5.77;;;4.50;;
16352;SDS011;8286;51.274;9.542;2023-04-06T14:49:23;7.53;;;4.80;;
16352;SDS011;8286;51.274;9.542;2023-04-06T14:51:49;5.93;;;4.90;;
16352;SDS011;8286;51.274;9.542;2023-04-06T14:54:16;7.70;;;5.30;;
16352;SDS011;8286;51.274;9.542;2023-04-06T14:56:43;6.25;;;4.45;;
16352;SDS011;8286;51.274;9.542;2023-04-06T14:59:09;6.93;;;5.07;;